sensor_id;sensor_type;location;lat;lon;timestamp;P1;durP1;ratioP1;P2;durP2;ratioP2
11596;SDS011;5854;48.072;16.286;2022-07-22T00:01:18;4.68;;;4.05;;
11596;SDS011;5854;48.072;16.286;2022-07-22T00:03:46;3.72;;;3.42;;
11596;SDS011;5854;48.072;16.286;2022-07-22T00:06:14;12.88;;;4.00;;
11596;SDS011;5854;48.072;16.286;2022-07-22T00:08:41;5.05;;;3.95;;
11596;SDS011;5854;48.072;16.286;2022-07-22T00:11:08;5.57;;;4.38;;
11596;SDS011;5854;48.072;16.286;2022-07-22T00:13:35;4.63;;;4.22;;
11596;SDS011;5854;48.072;16.286;2022-07-22T00:16:06;4.63;;;4.32;;
11596;SDS011;5854;48.072;16.286;2022-07-22T00:18:33;4.07;;;3.67;;
11596;SDS011;5854;48.072;16.286;2022-07-22T00:21:01;4.53;;;4.10;;
11596;SDS011;5854;48.072;16.286;2022-07-22T00:23:29;4.35;;;3.85;;
11596;SDS011;5854;48.072;16.286;2022-07-22T00:25:57;7.22;;;4.15;;
11596;SDS011;5854;48.072;16.286;2022-07-22T00:28:24;4.55;;;3.55;;
11596;SDS011;5854;48.072;16.286;2022-07-22T00:30:51;4.53;;;4.13;;
11596;SDS011;5854;48.072;16.286;2022-07-22T00:33:20;4.20;;;3.85;;
11596;SDS011;5854;48.072;16.286;2022-07-22T00:35:48;3.88;;;3.50;;
11596;SDS011;5854;48.072;16.286;2022-07-22T00:38:15;5.53;;;3.85;;
11596;SDS011;5854;48.072;16.286;2022-07-22T00:40:42;4.75;;;4.40;;
11596;SDS011;5854;48.072;16.286;2022-07-22T00:43:09;4.45;;;4.05;;
11596;SDS011;5854;48.072;16.286;2022-07-22T00:45:36;5.40;;;3.78;;
11596;SDS011;5854;48.072;16.286;2022-07-22T00:48:04;4.57;;;3.95;;
11596;SDS011;5854;48.072;16.286;2022-07-22T00:50:33;4.85;;;3.90;;
11596;SDS011;5854;48.072;16.286;2022-07-22T00:53:04;7.40;;;3.53;;
11596;SDS011;5854;48.072;16.286;2022-07-22T00:55:32;4.68;;;3.90;;
11596;SDS011;5854;48.072;16.286;2022-07-22T00:58:00;5.97;;;3.97;;
11596;SDS011;5854;48.072;16.286;2022-07-22T01:00:29;5.57;;;3.85;;
11596;SDS011;5854;48.072;16.286;2022-07-22T01:02:56;4.75;;;4.38;;
11596;SDS011;5854;48.072;16.286;2022-07-22T01:05:24;6.00;;;4.25;;
11596;SDS011;5854;48.072;16.286;2022-07-22T01:07:53;6.00;;;4.47;;
11596;SDS011;5854;48.072;16.286;2022-07-22T01:10:20;9.35;;;3.85;;
11596;SDS011;5854;48.072;16.286;2022-07-22T01:12:47;6.05;;;4.00;;
11596;SDS011;5854;48.072;16.286;2022-07-22T01:15:14;8.10;;;4.60;;
11596;SDS011;5854;48.072;16.286;2022-07-22T01:17:43;4.18;;;3.88;;
11596;SDS011;5854;48.072;16.286;2022-07-22T01:20:11;4.43;;;4.03;;
11596;SDS011;5854;48.072;16.286;2022-07-22T01:22:39;4.22;;;3.92;;
11596;SDS011;5854;48.072;16.286;2022-07-22T01:25:06;5.00;;;4.10;;
11596;SDS011;5854;48.072;16.286;2022-07-22T01:27:33;4.40;;;4.00;;
11596;SDS011;5854;48.072;16.286;2022-07-22T01:30:01;7.15;;;4.28;;
11596;SDS011;5854;48.072;16.286;2022-07-22T01:32:29;5.82;;;4.43;;
11596;SDS011;5854;48.072;16.286;2022-07-22T01:34:56;5.25;;;4.28;;
11596;SDS011;5854;48.072;16.286;2022-07-22T01:37:25;4.53;;;4.13;;
11596;SDS011;5854;48.072;16.286;2022-07-22T01:39:52;4.43;;;3.60;;
11596;SDS011;5854;48.072;16.286;2022-07-22T01:42:19;5.95;;;3.83;;
11596;SDS011;5854;48.072;16.286;2022-07-22T01:44:46;10.20;;;3.90;;
11596;SDS011;5854;48.072;16.286;2022-07-22T01:47:13;4.57;;;4.22;;
11596;SDS011;5854;48.072;16.286;2022-07-22T01:49:40;7.78;;;4.65;;
11596;SDS011;5854;48.072;16.286;2022-07-22T01:52:08;5.20;;;4.80;;
11596;SDS011;5854;48.072;16.286;2022-07-22T01:54:36;5.40;;;4.90;;
11596;SDS011;5854;48.072;16.286;2022-07-22T01:57:03;4.20;;;3.90;;
11596;SDS011;5854;48.072;16.286;2022-07-22T01:59:30;6.78;;;4.25;;
11596;SDS011;5854;48.072;16.286;2022-07-22T02:01:57;6.55;;;4.05;;
11596;SDS011;5854;48.072;16.286;2022-07-22T02:04:24;6.72;;;4.28;;
11596;SDS011;5854;48.072;16.286;2022-07-22T02:06:52;7.38;;;4.47;;
11596;SDS011;5854;48.072;16.286;2022-07-22T02:09:19;5.75;;;4.55;;
11596;SDS011;5854;48.072;16.286;2022-07-22T02:11:47;4.85;;;4.47;;
11596;SDS011;5854;48.072;16.286;2022-07-22T02:14:14;4.65;;;4.32;;
11596;SDS011;5854;48.072;16.286;2022-07-22T02:16:41;5.10;;;4.63;;
11596;SDS011;5854;48.072;16.286;2022-07-22T02:19:08;4.97;;;4.60;;
11596;SDS011;5854;48.072;16.286;2022-07-22T02:21:36;4.40;;;3.88;;
11596;SDS011;5854;48.072;16.286;2022-07-22T02:24:04;5.85;;;4.45;;
11596;SDS011;5854;48.072;16.286;2022-07-22T02:26:31;5.35;;;4.85;;
11596;SDS011;5854;48.072;16.286;2022-07-22T02:29:00;5.45;;;3.80;;
11596;SDS011;5854;48.072;16.286;2022-07-22T02:31:28;4.50;;;4.10;;
11596;SDS011;5854;48.072;16.286;2022-07-22T02:33:55;4.70;;;4.28;;
11596;SDS011;5854;48.072;16.286;2022-07-22T02:36:22;5.28;;;4.90;;
11596;SDS011;5854;48.072;16.286;2022-07-22T02:38:50;6.22;;;4.40;;
11596;SDS011;5854;48.072;16.286;2022-07-22T02:41:17;4.88;;;4.43;;
11596;SDS011;5854;48.072;16.286;2022-07-22T02:43:44;6.38;;;4.75;;
11596;SDS011;5854;48.072;16.286;2022-07-22T02:46:12;8.25;;;4.55;;
11596;SDS011;5854;48.072;16.286;2022-07-22T02:48:39;5.18;;;4.60;;
11596;SDS011;5854;48.072;16.286;2022-07-22T02:51:07;4.78;;;4.47;;
11596;SDS011;5854;48.072;16.286;2022-07-22T02:53:34;6.60;;;4.93;;
11596;SDS011;5854;48.072;16.286;2022-07-22T02:56:01;4.75;;;4.35;;
11596;SDS011;5854;48.072;16.286;2022-07-22T02:58:28;6.55;;;5.45;;
11596;SDS011;5854;48.072;16.286;2022-07-22T03:00:55;6.47;;;5.25;;
11596;SDS011;5854;48.072;16.286;2022-07-22T03:03:23;4.95;;;4.65;;
11596;SDS011;5854;48.072;16.286;2022-07-22T03:05:50;5.68;;;5.18;;
11596;SDS011;5854;48.072;16.286;2022-07-22T03:08:18;5.10;;;4.70;;
11596;SDS011;5854;48.072;16.286;2022-07-22T03:10:45;5.75;;;4.28;;
11596;SDS011;5854;48.072;16.286;2022-07-22T03:13:12;7.07;;;5.10;;
11596;SDS011;5854;48.072;16.286;2022-07-22T03:15:39;7.38;;;5.00;;
11596;SDS011;5854;48.072;16.286;2022-07-22T03:18:06;4.45;;;4.07;;
11596;SDS011;5854;48.072;16.286;2022-07-22T03:20:36;4.63;;;4.32;;
11596;SDS011;5854;48.072;16.286;2022-07-22T03:23:03;7.38;;;5.55;;
11596;SDS011;5854;48.072;16.286;2022-07-22T03:25:31;6.13;;;5.53;;
11596;SDS011;5854;48.072;16.286;2022-07-22T03:27:59;5.32;;;4.82;;
11596;SDS011;5854;48.072;16.286;2022-07-22T03:30:26;5.15;;;4.75;;
11596;SDS011;5854;48.072;16.286;2022-07-22T03:32:53;8.55;;;5.15;;
11596;SDS011;5854;48.072;16.286;2022-07-22T03:35:20;6.10;;;5.53;;
11596;SDS011;5854;48.072;16.286;2022-07-22T03:37:49;5.45;;;5.05;;
11596;SDS011;5854;48.072;16.286;2022-07-22T03:40:16;6.40;;;4.85;;
11596;SDS011;5854;48.072;16.286;2022-07-22T03:42:43;6.75;;;5.60;;
11596;SDS011;5854;48.072;16.286;2022-07-22T03:45:10;6.25;;;4.88;;
11596;SDS011;5854;48.072;16.286;2022-07-22T03:47:37;7.18;;;5.45;;
11596;SDS011;5854;48.072;16.286;2022-07-22T03:50:05;5.88;;;5.38;;
11596;SDS011;5854;48.072;16.286;2022-07-22T03:52:33;5.68;;;5.20;;
11596;SDS011;5854;48.072;16.286;2022-07-22T03:55:02;5.88;;;5.45;;
11596;SDS011;5854;48.072;16.286;2022-07-22T03:57:30;6.03;;;5.53;;
11596;SDS011;5854;48.072;16.286;2022-07-22T03:59:58;5.07;;;4.65;;
11596;SDS011;5854;48.072;16.286;2022-07-22T04:02:25;9.43;;;4.95;;
11596;SDS011;5854;48.072;16.286;2022-07-22T04:04:52;5.55;;;5.03;;
11596;SDS011;5854;48.072;16.286;2022-07-22T04:07:19;5.85;;;5.40;;
11596;SDS011;5854;48.072;16.286;2022-07-22T04:09:46;6.85;;;5.70;;
11596;SDS011;5854;48.072;16.286;2022-07-22T04:12:15;6.45;;;5.03;;
11596;SDS011;5854;48.072;16.286;2022-07-22T04:14:42;5.93;;;4.55;;
11596;SDS011;5854;48.072;16.286;2022-07-22T04:17:09;10.32;;;5.72;;
11596;SDS011;5854;48.072;16.286;2022-07-22T04:19:37;5.25;;;4.85;;
11596;SDS011;5854;48.072;16.286;2022-07-22T04:22:04;5.88;;;4.75;;
11596;SDS011;5854;48.072;16.286;2022-07-22T04:24:31;5.80;;;5.35;;
11596;SDS011;5854;48.072;16.286;2022-07-22T04:26:58;5.85;;;5.20;;
11596;SDS011;5854;48.072;16.286;2022-07-22T04:29:27;5.25;;;4.80;;
11596;SDS011;5854;48.072;16.286;2022-07-22T04:31:54;5.50;;;4.95;;
11596;SDS011;5854;48.072;16.286;2022-07-22T04:34:21;6.07;;;5.45;;
11596;SDS011;5854;48.072;16.286;2022-07-22T04:36:48;7.75;;;4.82;;
11596;SDS011;5854;48.072;16.286;2022-07-22T04:39:15;4.72;;;4.43;;
11596;SDS011;5854;48.072;16.286;2022-07-22T04:41:43;5.53;;;4.80;;
11596;SDS011;5854;48.072;16.286;2022-07-22T04:44:10;6.35;;;5.60;;
11596;SDS011;5854;48.072;16.286;2022-07-22T04:46:38;5.35;;;4.88;;
11596;SDS011;5854;48.072;16.286;2022-07-22T04:49:05;5.95;;;5.20;;
11596;SDS011;5854;48.072;16.286;2022-07-22T04:51:32;5.35;;;4.80;;
11596;SDS011;5854;48.072;16.286;2022-07-22T04:54:00;5.65;;;5.15;;
11596;SDS011;5854;48.072;16.286;2022-07-22T04:56:27;6.00;;;5.50;;
11596;SDS011;5854;48.072;16.286;2022-07-22T04:58:55;7.45;;;4.80;;
11596;SDS011;5854;48.072;16.286;2022-07-22T05:01:22;7.47;;;5.63;;
11596;SDS011;5854;48.072;16.286;2022-07-22T05:03:50;6.18;;;4.95;;
11596;SDS011;5854;48.072;16.286;2022-07-22T05:06:18;4.95;;;4.65;;
11596;SDS011;5854;48.072;16.286;2022-07-22T05:08:45;5.47;;;4.85;;
11596;SDS011;5854;48.072;16.286;2022-07-22T05:11:12;6.28;;;5.28;;
11596;SDS011;5854;48.072;16.286;2022-07-22T05:13:39;4.75;;;4.35;;
11596;SDS011;5854;48.072;16.286;2022-07-22T05:16:07;7.55;;;5.13;;
11596;SDS011;5854;48.072;16.286;2022-07-22T05:18:34;5.30;;;4.90;;
11596;SDS011;5854;48.072;16.286;2022-07-22T05:21:03;7.07;;;4.70;;
11596;SDS011;5854;48.072;16.286;2022-07-22T05:23:31;8.02;;;4.22;;
11596;SDS011;5854;48.072;16.286;2022-07-22T05:25:58;4.97;;;4.43;;
11596;SDS011;5854;48.072;16.286;2022-07-22T05:28:27;4.95;;;4.45;;
11596;SDS011;5854;48.072;16.286;2022-07-22T05:30:55;8.88;;;5.80;;
11596;SDS011;5854;48.072;16.286;2022-07-22T05:33:22;5.90;;;4.50;;
11596;SDS011;5854;48.072;16.286;2022-07-22T05:35:49;5.60;;;5.10;;
11596;SDS011;5854;48.072;16.286;2022-07-22T05:38:18;6.60;;;4.72;;
11596;SDS011;5854;48.072;16.286;2022-07-22T05:40:45;4.78;;;4.38;;
11596;SDS011;5854;48.072;16.286;2022-07-22T05:43:13;7.15;;;4.88;;
11596;SDS011;5854;48.072;16.286;2022-07-22T05:45:40;5.32;;;4.90;;
11596;SDS011;5854;48.072;16.286;2022-07-22T05:48:07;5.70;;;5.20;;
11596;SDS011;5854;48.072;16.286;2022-07-22T05:50:35;5.15;;;4.75;;
11596;SDS011;5854;48.072;16.286;2022-07-22T05:53:02;4.80;;;4.35;;
11596;SDS011;5854;48.072;16.286;2022-07-22T05:55:31;7.18;;;4.80;;
11596;SDS011;5854;48.072;16.286;2022-07-22T05:57:58;5.53;;;4.80;;
11596;SDS011;5854;48.072;16.286;2022-07-22T06:00:25;5.60;;;4.63;;
11596;SDS011;5854;48.072;16.286;2022-07-22T06:02:52;5.65;;;5.15;;
11596;SDS011;5854;48.072;16.286;2022-07-22T06:05:20;4.72;;;4.43;;
11596;SDS011;5854;48.072;16.286;2022-07-22T06:07:47;5.43;;;4.38;;
11596;SDS011;5854;48.072;16.286;2022-07-22T06:10:14;5.05;;;4.68;;
11596;SDS011;5854;48.072;16.286;2022-07-22T06:12:47;7.53;;;4.45;;
11596;SDS011;5854;48.072;16.286;2022-07-22T06:15:14;5.25;;;4.80;;
11596;SDS011;5854;48.072;16.286;2022-07-22T06:17:41;10.00;;;5.28;;
11596;SDS011;5854;48.072;16.286;2022-07-22T06:20:08;7.38;;;4.90;;
11596;SDS011;5854;48.072;16.286;2022-07-22T06:22:38;5.45;;;4.63;;
11596;SDS011;5854;48.072;16.286;2022-07-22T06:25:06;5.15;;;4.75;;
11596;SDS011;5854;48.072;16.286;2022-07-22T06:27:34;6.00;;;5.40;;
11596;SDS011;5854;48.072;16.286;2022-07-22T06:30:03;5.28;;;4.93;;
11596;SDS011;5854;48.072;16.286;2022-07-22T06:32:32;6.22;;;4.35;;
11596;SDS011;5854;48.072;16.286;2022-07-22T10:47:52;10.95;;;5.65;;
11596;SDS011;5854;48.072;16.286;2022-07-22T10:50:43;4.82;;;4.28;;
11596;SDS011;5854;48.072;16.286;2022-07-22T10:53:25;5.32;;;4.82;;
11596;SDS011;5854;48.072;16.286;2022-07-22T10:56:14;5.07;;;4.47;;
11596;SDS011;5854;48.072;16.286;2022-07-22T10:58:51;4.72;;;4.38;;
11596;SDS011;5854;48.072;16.286;2022-07-22T11:01:22;7.13;;;4.82;;
11596;SDS011;5854;48.072;16.286;2022-07-22T11:03:54;6.97;;;4.70;;
11596;SDS011;5854;48.072;16.286;2022-07-22T11:06:23;7.28;;;5.10;;
11596;SDS011;5854;48.072;16.286;2022-07-22T11:08:54;6.63;;;4.80;;
11596;SDS011;5854;48.072;16.286;2022-07-22T11:11:39;4.88;;;4.47;;
11596;SDS011;5854;48.072;16.286;2022-07-22T11:14:17;4.43;;;4.13;;
11596;SDS011;5854;48.072;16.286;2022-07-22T11:16:49;7.78;;;4.95;;
11596;SDS011;5854;48.072;16.286;2022-07-22T11:19:23;4.95;;;4.45;;
11596;SDS011;5854;48.072;16.286;2022-07-22T11:21:52;10.18;;;4.70;;
11596;SDS011;5854;48.072;16.286;2022-07-22T11:24:22;6.05;;;4.78;;
11596;SDS011;5854;48.072;16.286;2022-07-22T11:26:52;10.23;;;4.28;;
11596;SDS011;5854;48.072;16.286;2022-07-22T11:31:53;8.35;;;4.57;;
11596;SDS011;5854;48.072;16.286;2022-07-22T11:43:43;5.68;;;4.20;;
11596;SDS011;5854;48.072;16.286;2022-07-22T11:46:12;4.55;;;4.10;;
11596;SDS011;5854;48.072;16.286;2022-07-22T11:48:41;5.57;;;4.43;;
11596;SDS011;5854;48.072;16.286;2022-07-22T11:51:09;6.35;;;4.82;;
11596;SDS011;5854;48.072;16.286;2022-07-22T11:53:39;7.43;;;4.20;;
11596;SDS011;5854;48.072;16.286;2022-07-22T11:56:12;4.95;;;4.55;;
11596;SDS011;5854;48.072;16.286;2022-07-22T11:58:47;8.32;;;4.30;;
11596;SDS011;5854;48.072;16.286;2022-07-22T12:01:19;4.65;;;4.00;;
11596;SDS011;5854;48.072;16.286;2022-07-22T12:03:49;10.52;;;3.90;;
11596;SDS011;5854;48.072;16.286;2022-07-22T12:06:20;5.93;;;4.90;;
11596;SDS011;5854;48.072;16.286;2022-07-22T12:14:03;6.25;;;3.63;;
11596;SDS011;5854;48.072;16.286;2022-07-22T12:16:33;4.10;;;3.70;;
11596;SDS011;5854;48.072;16.286;2022-07-22T12:19:02;7.82;;;4.50;;
11596;SDS011;5854;48.072;16.286;2022-07-22T12:21:33;4.88;;;4.32;;
11596;SDS011;5854;48.072;16.286;2022-07-22T12:24:03;5.63;;;4.25;;
11596;SDS011;5854;48.072;16.286;2022-07-22T12:26:45;6.20;;;4.00;;
11596;SDS011;5854;48.072;16.286;2022-07-22T12:29:16;8.55;;;4.40;;
11596;SDS011;5854;48.072;16.286;2022-07-22T12:31:46;10.05;;;3.75;;
11596;SDS011;5854;48.072;16.286;2022-07-22T12:34:16;6.15;;;3.90;;
11596;SDS011;5854;48.072;16.286;2022-07-22T12:39:14;4.70;;;4.15;;
11596;SDS011;5854;48.072;16.286;2022-07-22T12:41:47;11.20;;;4.35;;
11596;SDS011;5854;48.072;16.286;2022-07-22T12:44:22;4.18;;;3.80;;
11596;SDS011;5854;48.072;16.286;2022-07-22T12:46:53;4.25;;;3.38;;
11596;SDS011;5854;48.072;16.286;2022-07-22T12:49:22;4.75;;;3.67;;
11596;SDS011;5854;48.072;16.286;2022-07-22T12:52:10;4.43;;;4.03;;
11596;SDS011;5854;48.072;16.286;2022-07-22T12:54:40;7.63;;;3.80;;
11596;SDS011;5854;48.072;16.286;2022-07-22T12:57:10;10.02;;;4.18;;
11596;SDS011;5854;48.072;16.286;2022-07-22T12:59:39;8.75;;;4.18;;
11596;SDS011;5854;48.072;16.286;2022-07-22T13:02:06;4.30;;;3.45;;
11596;SDS011;5854;48.072;16.286;2022-07-22T13:04:33;9.85;;;4.22;;
11596;SDS011;5854;48.072;16.286;2022-07-22T13:07:00;6.18;;;4.38;;
11596;SDS011;5854;48.072;16.286;2022-07-22T13:09:28;7.15;;;4.20;;
11596;SDS011;5854;48.072;16.286;2022-07-22T13:11:55;5.57;;;3.97;;
11596;SDS011;5854;48.072;16.286;2022-07-22T13:14:22;4.75;;;4.43;;
11596;SDS011;5854;48.072;16.286;2022-07-22T13:16:51;3.58;;;3.38;;
11596;SDS011;5854;48.072;16.286;2022-07-22T13:19:18;4.93;;;4.45;;
11596;SDS011;5854;48.072;16.286;2022-07-22T13:21:45;4.93;;;3.70;;
11596;SDS011;5854;48.072;16.286;2022-07-22T13:24:12;7.70;;;5.07;;
11596;SDS011;5854;48.072;16.286;2022-07-22T13:26:39;6.05;;;3.92;;
11596;SDS011;5854;48.072;16.286;2022-07-22T13:29:06;8.70;;;3.95;;
11596;SDS011;5854;48.072;16.286;2022-07-22T13:31:34;6.10;;;4.40;;
11596;SDS011;5854;48.072;16.286;2022-07-22T13:34:03;4.65;;;3.67;;
11596;SDS011;5854;48.072;16.286;2022-07-22T13:36:30;7.72;;;4.38;;
11596;SDS011;5854;48.072;16.286;2022-07-22T13:38:58;8.13;;;4.18;;
11596;SDS011;5854;48.072;16.286;2022-07-22T13:41:26;9.68;;;4.43;;
11596;SDS011;5854;48.072;16.286;2022-07-22T13:43:54;4.95;;;4.45;;
11596;SDS011;5854;48.072;16.286;2022-07-22T13:46:21;5.50;;;3.97;;
11596;SDS011;5854;48.072;16.286;2022-07-22T13:48:48;6.80;;;4.70;;
11596;SDS011;5854;48.072;16.286;2022-07-22T13:51:16;4.22;;;3.63;;
11596;SDS011;5854;48.072;16.286;2022-07-22T13:53:44;11.40;;;3.75;;
11596;SDS011;5854;48.072;16.286;2022-07-22T13:56:11;5.22;;;4.05;;
11596;SDS011;5854;48.072;16.286;2022-07-22T13:58:38;4.55;;;4.13;;
11596;SDS011;5854;48.072;16.286;2022-07-22T14:01:06;10.45;;;3.65;;
11596;SDS011;5854;48.072;16.286;2022-07-22T14:03:35;4.53;;;3.95;;
11596;SDS011;5854;48.072;16.286;2022-07-22T14:06:02;4.38;;;4.07;;
11596;SDS011;5854;48.072;16.286;2022-07-22T14:08:31;7.32;;;4.13;;
11596;SDS011;5854;48.072;16.286;2022-07-22T14:10:58;6.47;;;4.28;;
11596;SDS011;5854;48.072;16.286;2022-07-22T14:13:25;3.85;;;3.55;;
11596;SDS011;5854;48.072;16.286;2022-07-22T14:15:53;8.68;;;4.13;;
11596;SDS011;5854;48.072;16.286;2022-07-22T14:18:20;5.07;;;4.18;;
11596;SDS011;5854;48.072;16.286;2022-07-22T14:20:48;4.13;;;3.72;;
11596;SDS011;5854;48.072;16.286;2022-07-22T14:23:15;6.70;;;3.88;;
11596;SDS011;5854;48.072;16.286;2022-07-22T14:25:47;7.10;;;3.88;;
11596;SDS011;5854;48.072;16.286;2022-07-22T14:28:14;12.68;;;4.15;;
11596;SDS011;5854;48.072;16.286;2022-07-22T14:30:41;6.25;;;3.88;;
11596;SDS011;5854;48.072;16.286;2022-07-22T14:33:08;5.95;;;4.38;;
11596;SDS011;5854;48.072;16.286;2022-07-22T14:35:35;3.85;;;3.45;;
11596;SDS011;5854;48.072;16.286;2022-07-22T14:38:02;5.50;;;3.97;;
11596;SDS011;5854;48.072;16.286;2022-07-22T14:40:29;8.80;;;4.10;;
11596;SDS011;5854;48.072;16.286;2022-07-22T14:42:58;5.10;;;3.40;;
11596;SDS011;5854;48.072;16.286;2022-07-22T14:45:25;6.15;;;3.80;;
11596;SDS011;5854;48.072;16.286;2022-07-22T14:47:52;4.18;;;3.55;;
11596;SDS011;5854;48.072;16.286;2022-07-22T14:50:19;10.23;;;4.45;;
11596;SDS011;5854;48.072;16.286;2022-07-22T14:52:47;11.20;;;4.60;;
11596;SDS011;5854;48.072;16.286;2022-07-22T14:55:14;9.70;;;4.00;;
11596;SDS011;5854;48.072;16.286;2022-07-22T14:57:41;9.48;;;3.88;;
11596;SDS011;5854;48.072;16.286;2022-07-22T15:00:10;8.63;;;3.42;;
11596;SDS011;5854;48.072;16.286;2022-07-22T15:02:38;6.18;;;3.50;;
11596;SDS011;5854;48.072;16.286;2022-07-22T15:05:05;7.18;;;3.85;;
11596;SDS011;5854;48.072;16.286;2022-07-22T15:07:33;7.15;;;3.80;;
11596;SDS011;5854;48.072;16.286;2022-07-22T15:10:00;6.35;;;3.97;;
11596;SDS011;5854;48.072;16.286;2022-07-22T15:12:27;4.10;;;3.70;;
11596;SDS011;5854;48.072;16.286;2022-07-22T15:14:54;5.22;;;3.78;;
11596;SDS011;5854;48.072;16.286;2022-07-22T15:17:23;9.82;;;3.90;;
11596;SDS011;5854;48.072;16.286;2022-07-22T15:19:50;5.05;;;3.85;;
11596;SDS011;5854;48.072;16.286;2022-07-22T15:22:17;5.20;;;3.30;;
11596;SDS011;5854;48.072;16.286;2022-07-22T15:24:44;9.13;;;3.80;;
11596;SDS011;5854;48.072;16.286;2022-07-22T15:27:12;5.10;;;3.30;;
11596;SDS011;5854;48.072;16.286;2022-07-22T15:29:39;6.63;;;3.45;;
11596;SDS011;5854;48.072;16.286;2022-07-22T15:32:06;8.27;;;3.65;;
11596;SDS011;5854;48.072;16.286;2022-07-22T15:34:35;4.55;;;3.45;;
11596;SDS011;5854;48.072;16.286;2022-07-22T15:37:02;6.15;;;3.03;;
11596;SDS011;5854;48.072;16.286;2022-07-22T15:39:29;5.50;;;3.70;;
11596;SDS011;5854;48.072;16.286;2022-07-22T15:41:56;6.65;;;3.28;;
11596;SDS011;5854;48.072;16.286;2022-07-22T15:44:23;11.27;;;3.38;;
11596;SDS011;5854;48.072;16.286;2022-07-22T15:46:51;5.00;;;3.50;;
11596;SDS011;5854;48.072;16.286;2022-07-22T15:49:19;7.63;;;3.15;;
11596;SDS011;5854;48.072;16.286;2022-07-22T15:51:49;6.18;;;3.13;;
11596;SDS011;5854;48.072;16.286;2022-07-22T15:54:16;6.82;;;3.20;;
11596;SDS011;5854;48.072;16.286;2022-07-22T15:56:43;8.10;;;3.00;;
11596;SDS011;5854;48.072;16.286;2022-07-22T15:59:10;6.32;;;3.10;;
11596;SDS011;5854;48.072;16.286;2022-07-22T16:01:55;8.13;;;3.40;;
11596;SDS011;5854;48.072;16.286;2022-07-22T16:04:22;3.40;;;3.20;;
11596;SDS011;5854;48.072;16.286;2022-07-22T16:06:50;7.32;;;3.47;;
11596;SDS011;5854;48.072;16.286;2022-07-22T16:09:18;8.55;;;4.18;;
11596;SDS011;5854;48.072;16.286;2022-07-22T16:11:45;3.70;;;3.28;;
11596;SDS011;5854;48.072;16.286;2022-07-22T16:14:12;10.73;;;3.47;;
11596;SDS011;5854;48.072;16.286;2022-07-22T16:16:39;13.77;;;3.55;;
11596;SDS011;5854;48.072;16.286;2022-07-22T16:19:06;8.02;;;3.30;;
11596;SDS011;5854;48.072;16.286;2022-07-22T16:21:33;4.10;;;3.80;;
11596;SDS011;5854;48.072;16.286;2022-07-22T16:29:08;10.18;;;5.03;;
11596;SDS011;5854;48.072;16.286;2022-07-22T16:31:35;7.43;;;2.95;;
11596;SDS011;5854;48.072;16.286;2022-07-22T16:34:02;6.72;;;3.83;;
11596;SDS011;5854;48.072;16.286;2022-07-22T16:36:29;6.78;;;3.35;;
11596;SDS011;5854;48.072;16.286;2022-07-22T16:38:56;23.05;;;4.75;;
11596;SDS011;5854;48.072;16.286;2022-07-22T16:41:25;6.40;;;3.60;;
11596;SDS011;5854;48.072;16.286;2022-07-22T16:43:53;4.47;;;4.07;;
11596;SDS011;5854;48.072;16.286;2022-07-22T16:46:21;6.40;;;5.80;;
11596;SDS011;5854;48.072;16.286;2022-07-22T16:48:48;7.15;;;3.80;;
11596;SDS011;5854;48.072;16.286;2022-07-22T16:51:16;11.88;;;4.75;;
11596;SDS011;5854;48.072;16.286;2022-07-22T16:53:43;7.07;;;3.45;;
11596;SDS011;5854;48.072;16.286;2022-07-22T16:56:10;7.38;;;5.35;;
11596;SDS011;5854;48.072;16.286;2022-07-22T16:58:37;14.95;;;3.58;;
11596;SDS011;5854;48.072;16.286;2022-07-22T17:01:05;10.18;;;3.88;;
11596;SDS011;5854;48.072;16.286;2022-07-22T17:03:33;8.32;;;3.20;;
11596;SDS011;5854;48.072;16.286;2022-07-22T17:06:00;5.53;;;3.60;;
11596;SDS011;5854;48.072;16.286;2022-07-22T17:08:27;4.40;;;3.72;;
11596;SDS011;5854;48.072;16.286;2022-07-22T17:10:55;4.40;;;3.40;;
11596;SDS011;5854;48.072;16.286;2022-07-22T17:13:22;6.32;;;3.33;;
11596;SDS011;5854;48.072;16.286;2022-07-22T17:15:50;11.30;;;5.10;;
11596;SDS011;5854;48.072;16.286;2022-07-22T17:18:18;5.65;;;5.07;;
11596;SDS011;5854;48.072;16.286;2022-07-22T17:20:46;19.13;;;12.45;;
11596;SDS011;5854;48.072;16.286;2022-07-22T17:23:13;15.50;;;11.18;;
11596;SDS011;5854;48.072;16.286;2022-07-22T17:25:40;6.07;;;4.82;;
11596;SDS011;5854;48.072;16.286;2022-07-22T17:28:07;10.82;;;5.30;;
11596;SDS011;5854;48.072;16.286;2022-07-22T17:30:34;19.88;;;4.15;;
11596;SDS011;5854;48.072;16.286;2022-07-22T17:33:02;4.88;;;3.15;;
11596;SDS011;5854;48.072;16.286;2022-07-22T17:35:29;7.93;;;3.30;;
11596;SDS011;5854;48.072;16.286;2022-07-22T17:37:58;3.78;;;3.47;;
11596;SDS011;5854;48.072;16.286;2022-07-22T17:40:25;9.48;;;3.67;;
11596;SDS011;5854;48.072;16.286;2022-07-22T17:42:52;7.85;;;3.08;;
11596;SDS011;5854;48.072;16.286;2022-07-22T17:45:19;7.68;;;2.80;;
11596;SDS011;5854;48.072;16.286;2022-07-22T17:47:48;3.67;;;2.90;;
11596;SDS011;5854;48.072;16.286;2022-07-22T17:50:15;7.28;;;3.55;;
11596;SDS011;5854;48.072;16.286;2022-07-22T17:52:42;9.43;;;3.47;;
11596;SDS011;5854;48.072;16.286;2022-07-22T17:55:11;12.02;;;3.60;;
11596;SDS011;5854;48.072;16.286;2022-07-22T17:57:38;6.05;;;3.30;;
11596;SDS011;5854;48.072;16.286;2022-07-22T18:00:05;5.32;;;3.78;;
11596;SDS011;5854;48.072;16.286;2022-07-22T18:02:34;7.32;;;3.03;;
11596;SDS011;5854;48.072;16.286;2022-07-22T18:05:02;6.38;;;3.40;;
11596;SDS011;5854;48.072;16.286;2022-07-22T18:07:30;7.75;;;3.60;;
11596;SDS011;5854;48.072;16.286;2022-07-22T18:09:57;4.50;;;3.67;;
11596;SDS011;5854;48.072;16.286;2022-07-22T18:12:25;4.10;;;3.38;;
11596;SDS011;5854;48.072;16.286;2022-07-22T18:14:54;7.72;;;3.60;;
11596;SDS011;5854;48.072;16.286;2022-07-22T18:17:21;8.20;;;3.10;;
11596;SDS011;5854;48.072;16.286;2022-07-22T18:19:48;5.22;;;3.70;;
11596;SDS011;5854;48.072;16.286;2022-07-22T18:22:15;7.85;;;3.60;;
11596;SDS011;5854;48.072;16.286;2022-07-22T18:24:42;5.22;;;3.40;;
11596;SDS011;5854;48.072;16.286;2022-07-22T18:27:09;6.43;;;3.55;;
11596;SDS011;5854;48.072;16.286;2022-07-22T18:29:38;7.43;;;3.72;;
11596;SDS011;5854;48.072;16.286;2022-07-22T18:32:05;4.80;;;3.28;;
11596;SDS011;5854;48.072;16.286;2022-07-22T18:34:33;9.15;;;3.65;;
11596;SDS011;5854;48.072;16.286;2022-07-22T18:37:00;9.07;;;3.55;;
11596;SDS011;5854;48.072;16.286;2022-07-22T18:39:27;4.78;;;3.60;;
11596;SDS011;5854;48.072;16.286;2022-07-22T18:41:55;4.07;;;3.58;;
11596;SDS011;5854;48.072;16.286;2022-07-22T18:44:22;8.60;;;3.67;;
11596;SDS011;5854;48.072;16.286;2022-07-22T18:46:51;5.53;;;3.17;;
11596;SDS011;5854;48.072;16.286;2022-07-22T18:49:19;8.20;;;3.95;;
11596;SDS011;5854;48.072;16.286;2022-07-22T18:51:46;3.72;;;3.42;;
11596;SDS011;5854;48.072;16.286;2022-07-22T18:54:13;6.78;;;3.70;;
11596;SDS011;5854;48.072;16.286;2022-07-22T18:56:40;7.45;;;3.03;;
11596;SDS011;5854;48.072;16.286;2022-07-22T18:59:07;8.02;;;3.60;;
11596;SDS011;5854;48.072;16.286;2022-07-22T19:01:34;7.05;;;3.78;;
11596;SDS011;5854;48.072;16.286;2022-07-22T19:04:03;6.28;;;3.33;;
11596;SDS011;5854;48.072;16.286;2022-07-22T19:06:30;5.20;;;3.97;;
11596;SDS011;5854;48.072;16.286;2022-07-22T19:08:57;5.75;;;3.88;;
11596;SDS011;5854;48.072;16.286;2022-07-22T19:11:24;7.80;;;4.50;;
11596;SDS011;5854;48.072;16.286;2022-07-22T19:13:52;7.50;;;4.32;;
11596;SDS011;5854;48.072;16.286;2022-07-22T19:16:19;12.38;;;3.85;;
11596;SDS011;5854;48.072;16.286;2022-07-22T19:18:46;7.20;;;3.88;;
11596;SDS011;5854;48.072;16.286;2022-07-22T19:21:14;4.18;;;3.47;;
11596;SDS011;5854;48.072;16.286;2022-07-22T19:23:41;5.00;;;4.07;;
11596;SDS011;5854;48.072;16.286;2022-07-22T19:26:10;4.05;;;3.70;;
11596;SDS011;5854;48.072;16.286;2022-07-22T19:28:37;4.00;;;3.67;;